13°C
Woerden, The Nederlands
Taal:  Nederlands
Updated15/10/2019 21:40 
 
WeerStation Woerden Historical Data
 
Daily Summary for October 15, 2019 Units:  Metric    English   Both
Daily Weekly Monthly Yearly Custom
  Current: High: Low: Average:
Temperature: 13.4 °C 17.2 °C 13.4 °C 15.4 °C
Dew Point: 10.4 °C 13.7 °C 10.4 °C 12.2 °C
Humidity: 82% 83% 78% 81%
Wind Speed: 4.8km/h 20.4km/h 3.2km/h 9.5km/h
Wind Gust: 9.7km/h 25.7km/h - -
WindSSW - - South
Pressure: 1006.1 hPa 1006.1 hPa 1002.7 hPa -
Precipitation: 2.4 mm      
Historical Graphs
 
 
Tabular Data for October 15, 2019
Time Temperature Dew Point Pressure Wind Wind Speed Wind Gust Humidity Rainfall Rate (Hourly) solar
00:00 17.2 °C 13.7 °C 1003.1 hPa SE 4.8 km/h 11.3 km/h 80% 0.0 mm 0.00 W/m2
00:05 17.0 °C 13.7 °C 1002.8 hPa SE 9.7 km/h 2.4 km/h 81% 0.0 mm 0.00 W/m2
00:10 16.9 °C 13.6 °C 1002.8 hPa SE 3.2 km/h 12.9 km/h 81% 0.0 mm 0.00 W/m2
00:15 16.7 °C 13.4 °C 1002.8 hPa ESE 8.0 km/h 5.8 km/h 81% 0.0 mm 0.00 W/m2
00:20 16.7 °C 13.4 °C 1002.9 hPa SE 8.0 km/h 12.9 km/h 81% 0.0 mm 0.00 W/m2
00:25 16.6 °C 13.3 °C 1002.9 hPa SE 14.5 km/h 7.6 km/h 81% 0.0 mm 0.00 W/m2
00:30 16.6 °C 13.3 °C 1002.9 hPa SE 4.8 km/h 14.5 km/h 81% 0.0 mm 0.00 W/m2
00:35 16.4 °C 13.2 °C 1002.9 hPa SE 8.0 km/h 6.9 km/h 81% 0.0 mm 0.00 W/m2
00:40 16.3 °C 13.1 °C 1002.8 hPa SE 4.8 km/h 11.3 km/h 81% 0.0 mm 0.00 W/m2
00:45 16.3 °C 13.0 °C 1002.9 hPa SE 13.0 km/h 7.2 km/h 81% 0.0 mm 0.00 W/m2
00:50 16.3 °C 13.3 °C 1003.1 hPa SE 8.0 km/h 12.9 km/h 82% 0.0 mm 0.00 W/m2
00:55 16.4 °C 13.3 °C 1003.0 hPa SE 11.1 km/h 7.1 km/h 82% 0.0 mm 0.00 W/m2
01:00 16.4 °C 13.3 °C 1002.8 hPa SE 8.0 km/h 12.9 km/h 82% 0.0 mm 0.00 W/m2
01:05 16.4 °C 13.3 °C 1002.8 hPa SE 16.7 km/h 10.0 km/h 82% 0.0 mm 0.00 W/m2
01:10 16.4 °C 13.3 °C 1002.9 hPa SE 9.7 km/h 16.1 km/h 82% 0.0 mm 0.00 W/m2
01:15 16.4 °C 13.1 °C 1002.7 hPa SE 14.5 km/h 8.8 km/h 81% 0.0 mm 0.00 W/m2
01:20 16.4 °C 13.3 °C 1002.8 hPa SE 11.3 km/h 16.1 km/h 82% 0.0 mm 0.00 W/m2
01:25 16.4 °C 13.1 °C 1002.8 hPa SE 18.5 km/h 10.1 km/h 81% 0.0 mm 0.00 W/m2
01:30 16.4 °C 13.1 °C 1003.0 hPa SE 12.9 km/h 19.3 km/h 81% 0.0 mm 0.00 W/m2
01:35 16.4 °C 13.1 °C 1003.0 hPa SE 18.5 km/h 12.2 km/h 81% 0.0 mm 0.00 W/m2
01:40 16.4 °C 13.3 °C 1003.0 hPa SE 12.9 km/h 19.3 km/h 82% 0.0 mm 0.00 W/m2
01:45 16.4 °C 13.2 °C 1003.0 hPa SSE 18.5 km/h 14.5 km/h 81% 0.0 mm 0.00 W/m2
01:50 16.5 °C 13.2 °C 1002.9 hPa SE 12.9 km/h 19.3 km/h 81% 0.0 mm 0.00 W/m2
01:55 16.6 °C 13.3 °C 1003.0 hPa SSE 11.3 km/h 7.6 km/h 81% 0.0 mm 0.00 W/m2
02:00 16.6 °C 13.3 °C 1003.0 hPa SSE 11.3 km/h 17.7 km/h 81% 0.0 mm 0.00 W/m2
02:05 16.6 °C 13.3 °C 1002.9 hPa SE 14.8 km/h 10.5 km/h 81% 0.0 mm 0.00 W/m2
02:10 16.5 °C 13.2 °C 1003.0 hPa SSE 11.3 km/h 19.3 km/h 81% 0.0 mm 0.00 W/m2
02:15 16.5 °C 13.2 °C 1003.0 hPa SSE 16.7 km/h 11.9 km/h 81% 0.0 mm 0.00 W/m2
02:20 16.4 °C 13.1 °C 1003.1 hPa SSE 11.3 km/h 19.3 km/h 81% 0.0 mm 0.00 W/m2
02:25 16.3 °C 13.0 °C 1003.2 hPa SSE 13.0 km/h 10.3 km/h 81% 0.0 mm 0.00 W/m2
02:30 16.2 °C 12.9 °C 1003.2 hPa SSE 18.5 km/h 11.4 km/h 81% 0.0 mm 0.00 W/m2
02:35 16.1 °C 13.1 °C 1003.1 hPa SSE 18.5 km/h 12.6 km/h 82% 0.0 mm 0.00 W/m2
02:40 16.1 °C 13.0 °C 1003.3 hPa SSE 11.3 km/h 19.3 km/h 82% 0.0 mm 0.00 W/m2
02:45 16.1 °C 13.1 °C 1003.3 hPa SSE 16.7 km/h 10.5 km/h 82% 0.0 mm 0.00 W/m2
02:50 16.1 °C 13.1 °C 1003.4 hPa SSE 11.3 km/h 19.3 km/h 82% 0.0 mm 0.00 W/m2
02:55 16.1 °C 13.1 °C 1003.3 hPa SSE 9.3 km/h 8.4 km/h 82% 0.0 mm 0.00 W/m2
03:00 16.0 °C 12.9 °C 1003.2 hPa SSE 13.0 km/h 8.7 km/h 82% 0.0 mm 0.00 W/m2
03:05 15.9 °C 12.9 °C 1003.2 hPa SSE 14.8 km/h 9.7 km/h 82% 0.0 mm 0.00 W/m2
03:10 15.9 °C 12.8 °C 1003.1 hPa South 8.0 km/h 14.5 km/h 82% 0.0 mm 0.00 W/m2
03:15 15.8 °C 12.8 °C 1003.0 hPa SSE 11.1 km/h 7.4 km/h 82% 0.0 mm 0.00 W/m2
03:20 15.8 °C 12.8 °C 1003.1 hPa SSE 4.8 km/h 11.3 km/h 82% 0.0 mm 0.00 W/m2
03:25 15.7 °C 12.7 °C 1003.2 hPa SSE 11.1 km/h 6.4 km/h 82% 0.0 mm 0.00 W/m2
03:30 15.7 °C 12.7 °C 1002.9 hPa SSE 3.2 km/h 11.3 km/h 82% 0.0 mm 0.00 W/m2
03:35 15.7 °C 12.7 °C 1003.1 hPa SSE 8.0 km/h 6.1 km/h 82% 0.0 mm 0.00 W/m2
03:40 15.7 °C 12.6 °C 1002.9 hPa SSE 4.8 km/h 9.7 km/h 82% 0.0 mm 0.00 W/m2
03:45 15.7 °C 12.7 °C 1003.0 hPa South 7.4 km/h 5.8 km/h 82% 0.0 mm 0.00 W/m2
03:50 15.7 °C 12.6 °C 1003.1 hPa South 3.2 km/h 9.7 km/h 82% 0.0 mm 0.00 W/m2
03:55 15.7 °C 12.7 °C 1003.3 hPa South 9.7 km/h 6.3 km/h 82% 0.0 mm 0.00 W/m2
04:00 15.7 °C 12.7 °C 1003.2 hPa South 4.8 km/h 11.3 km/h 82% 0.0 mm 0.00 W/m2
04:05 15.7 °C 12.7 °C 1003.4 hPa South 13.0 km/h 7.4 km/h 82% 0.0 mm 0.00 W/m2
04:10 15.7 °C 12.7 °C 1003.4 hPa SSW 11.1 km/h 6.6 km/h 82% 0.0 mm 0.00 W/m2
04:15 15.8 °C 12.5 °C 1003.5 hPa South 11.1 km/h 6.4 km/h 81% 0.0 mm 0.00 W/m2
04:20 15.8 °C 12.6 °C 1003.4 hPa SSW 4.8 km/h 14.5 km/h 81% 0.0 mm 0.00 W/m2
04:25 15.8 °C 12.6 °C 1003.4 hPa South 9.3 km/h 7.7 km/h 81% 0.0 mm 0.00 W/m2
04:30 15.8 °C 12.6 °C 1003.4 hPa South 8.0 km/h 14.5 km/h 81% 0.0 mm 0.00 W/m2
04:35 15.7 °C 12.3 °C 1003.4 hPa South 9.3 km/h 7.2 km/h 80% 0.0 mm 0.00 W/m2
04:40 15.8 °C 12.5 °C 1003.4 hPa South 8.0 km/h 16.1 km/h 81% 0.0 mm 0.00 W/m2
04:45 15.8 °C 12.6 °C 1003.3 hPa SSW 13.0 km/h 6.8 km/h 81% 0.0 mm 0.00 W/m2
04:50 15.8 °C 12.6 °C 1003.2 hPa South 8.0 km/h 16.1 km/h 81% 0.0 mm 0.00 W/m2
04:55 15.8 °C 12.6 °C 1003.2 hPa SSW 9.3 km/h 6.0 km/h 81% 0.0 mm 0.00 W/m2
05:00 15.8 °C 12.5 °C 1003.2 hPa South 4.8 km/h 11.3 km/h 81% 0.0 mm 0.00 W/m2
05:05 15.7 °C 12.4 °C 1003.1 hPa South 9.3 km/h 6.0 km/h 81% 0.0 mm 0.00 W/m2
05:10 15.7 °C 12.4 °C 1003.2 hPa South 8.0 km/h 9.7 km/h 81% 0.0 mm 0.00 W/m2
05:15 15.5 °C 12.3 °C 1003.2 hPa SSE 9.3 km/h 7.1 km/h 81% 0.0 mm 0.00 W/m2
05:20 15.4 °C 12.2 °C 1003.2 hPa SSE 8.0 km/h 9.7 km/h 81% 0.0 mm 0.00 W/m2
05:25 15.3 °C 12.3 °C 1003.2 hPa SSE 9.3 km/h 6.1 km/h 82% 0.0 mm 0.00 W/m2
05:30 15.3 °C 12.2 °C 1003.3 hPa South 8.0 km/h 9.7 km/h 82% 0.0 mm 0.00 W/m2
05:35 15.2 °C 12.2 °C 1003.2 hPa South 9.7 km/h 5.6 km/h 82% 0.0 mm 0.00 W/m2
05:40 15.2 °C 12.1 °C 1003.4 hPa South 8.0 km/h 11.3 km/h 82% 0.0 mm 0.00 W/m2
05:45 15.1 °C 12.1 °C 1003.5 hPa South 8.0 km/h 6.6 km/h 82% 0.0 mm 0.00 W/m2
05:50 15.1 °C 12.0 °C 1003.6 hPa South 8.0 km/h 12.9 km/h 82% 0.0 mm 0.00 W/m2
05:55 15.1 °C 12.0 °C 1003.5 hPa SSW 11.3 km/h 6.1 km/h 82% 0.0 mm 0.00 W/m2
06:00 15.1 °C 12.0 °C 1003.5 hPa South 8.0 km/h 12.9 km/h 82% 0.0 mm 0.00 W/m2
06:05 15.1 °C 12.0 °C 1003.3 hPa South 11.1 km/h 6.1 km/h 82% 0.0 mm 0.00 W/m2
06:10 15.1 °C 12.1 °C 1003.5 hPa South 8.0 km/h 11.3 km/h 82% 0.0 mm 0.00 W/m2
06:15 15.1 °C 12.1 °C 1003.4 hPa South 11.3 km/h 6.1 km/h 82% 0.0 mm 0.00 W/m2
06:20 15.1 °C 12.1 °C 1003.5 hPa South 4.8 km/h 11.3 km/h 82% 0.0 mm 0.00 W/m2
06:25 15.1 °C 12.0 °C 1003.3 hPa South 5.6 km/h 3.2 km/h 82% 0.0 mm 0.00 W/m2
06:30 15.0 °C 11.9 °C 1003.4 hPa South 3.2 km/h 9.7 km/h 82% 0.0 mm 0.00 W/m2
06:35 15.0 °C 11.9 °C 1003.3 hPa South 5.6 km/h 5.0 km/h 82% 0.0 mm 0.00 W/m2
06:40 14.9 °C 11.9 °C 1003.1 hPa South 3.2 km/h 11.3 km/h 82% 0.0 mm 0.00 W/m2
06:45 14.9 °C 11.9 °C 1003.0 hPa South 6.4 km/h 4.2 km/h 82% 0.0 mm 0.00 W/m2
06:50 14.9 °C 11.8 °C 1003.0 hPa South 4.8 km/h 8.0 km/h 82% 0.0 mm 0.00 W/m2
06:55 14.9 °C 11.8 °C 1003.0 hPa South 11.1 km/h 7.6 km/h 82% 0.0 mm 0.00 W/m2
07:00 14.8 °C 11.8 °C 1003.1 hPa South 8.0 km/h 11.3 km/h 82% 0.0 mm 0.00 W/m2
07:05 14.8 °C 11.8 °C 1003.1 hPa South 11.1 km/h 7.9 km/h 82% 0.0 mm 0.00 W/m2
07:10 14.8 °C 11.8 °C 1003.2 hPa South 9.7 km/h 12.9 km/h 82% 0.0 mm 0.00 W/m2
07:15 14.8 °C 11.8 °C 1003.1 hPa South 11.1 km/h 8.4 km/h 82% 0.0 mm 0.00 W/m2
07:20 14.8 °C 11.7 °C 1003.1 hPa South 8.0 km/h 12.9 km/h 82% 0.0 mm 0.00 W/m2
07:25 14.8 °C 11.7 °C 1003.1 hPa South 9.7 km/h 7.6 km/h 82% 0.0 mm 0.00 W/m2
07:30 14.7 °C 11.7 °C 1003.2 hPa SSE 9.7 km/h 12.9 km/h 82% 0.0 mm 0.00 W/m2
07:35 14.7 °C 11.7 °C 1003.5 hPa SSE 14.8 km/h 10.1 km/h 82% 0.0 mm 0.00 W/m2
07:40 14.7 °C 11.7 °C 1003.5 hPa SSE 9.7 km/h 14.5 km/h 82% 0.0 mm 0.00 W/m2
07:45 14.8 °C 11.7 °C 1003.6 hPa South 13.0 km/h 9.0 km/h 82% 0.0 mm 0.00 W/m2
07:50 14.7 °C 11.7 °C 1003.5 hPa South 8.0 km/h 12.9 km/h 82% 0.0 mm 0.00 W/m2
07:55 14.7 °C 11.7 °C 1003.7 hPa South 8.0 km/h 5.8 km/h 82% 0.0 mm 0.00 W/m2
08:00 14.7 °C 11.7 °C 1003.6 hPa South 4.8 km/h 11.3 km/h 82% 0.0 mm 0.00 W/m2
08:05 14.7 °C 11.6 °C 1003.6 hPa South 9.7 km/h 8.0 km/h 82% 0.0 mm 0.00 W/m2
08:10 14.7 °C 11.6 °C 1003.5 hPa South 9.7 km/h 14.5 km/h 82% 0.0 mm 0.00 W/m2
08:15 14.7 °C 11.6 °C 1003.6 hPa South 11.1 km/h 6.8 km/h 82% 0.0 mm 0.00 W/m2
08:20 14.6 °C 11.6 °C 1003.6 hPa South 8.0 km/h 14.5 km/h 82% 0.0 mm 5.00 W/m2
08:25 14.7 °C 11.6 °C 1003.6 hPa South 11.1 km/h 9.0 km/h 82% 0.0 mm 11.00 W/m2
08:30 14.7 °C 11.6 °C 1003.5 hPa South 4.8 km/h 14.5 km/h 82% 0.0 mm 14.00 W/m2
08:35 14.7 °C 11.6 °C 1003.5 hPa South 11.1 km/h 7.9 km/h 82% 0.2 mm 33.00 W/m2
08:40 14.7 °C 11.6 °C 1003.5 hPa South 9.7 km/h 14.5 km/h 82% 0.2 mm 47.00 W/m2
08:45 14.7 °C 11.6 °C 1003.5 hPa SSE 9.3 km/h 6.9 km/h 82% 0.2 mm 53.00 W/m2
08:50 14.7 °C 11.6 °C 1003.4 hPa South 4.8 km/h 14.5 km/h 82% 0.2 mm 51.00 W/m2
08:55 14.7 °C 11.6 °C 1003.4 hPa SSE 9.7 km/h 5.6 km/h 82% 0.2 mm 60.00 W/m2
09:00 14.7 °C 11.7 °C 1003.5 hPa South 8.0 km/h 11.3 km/h 82% 0.2 mm 53.00 W/m2
09:05 14.7 °C 11.7 °C 1003.6 hPa South 11.1 km/h 6.9 km/h 82% 0.2 mm 63.00 W/m2
09:10 14.8 °C 11.7 °C 1003.6 hPa South 8.0 km/h 16.1 km/h 82% 0.2 mm 67.00 W/m2
09:15 14.8 °C 11.7 °C 1003.7 hPa SSW 8.0 km/h 6.1 km/h 82% 0.2 mm 60.00 W/m2
09:20 14.8 °C 11.8 °C 1003.7 hPa South 8.0 km/h 11.3 km/h 82% 0.2 mm 65.00 W/m2
09:25 14.8 °C 11.8 °C 1003.9 hPa South 9.7 km/h 4.3 km/h 82% 0.2 mm 69.00 W/m2
09:30 14.8 °C 11.8 °C 1003.9 hPa South 4.8 km/h 14.5 km/h 82% 0.2 mm 70.00 W/m2
09:35 14.9 °C 11.8 °C 1004.1 hPa South 11.1 km/h 8.4 km/h 82% 0.0 mm 83.00 W/m2
09:40 14.9 °C 11.8 °C 1004.0 hPa South 8.0 km/h 12.9 km/h 82% 0.0 mm 90.00 W/m2
09:45 14.9 °C 11.9 °C 1003.9 hPa South 14.8 km/h 8.4 km/h 82% 0.0 mm 79.00 W/m2
09:50 14.9 °C 11.9 °C 1004.1 hPa South 9.7 km/h 16.1 km/h 82% 0.0 mm 95.00 W/m2
09:55 15.0 °C 11.9 °C 1004.2 hPa South 14.8 km/h 10.0 km/h 82% 0.0 mm 86.00 W/m2
10:00 15.0 °C 11.9 °C 1004.3 hPa South 9.7 km/h 16.1 km/h 82% 0.0 mm 105.00 W/m2
10:05 15.1 °C 12.0 °C 1004.3 hPa SSW 13.0 km/h 7.4 km/h 82% 0.0 mm 116.00 W/m2
10:10 15.1 °C 12.0 °C 1004.2 hPa SSW 9.7 km/h 16.1 km/h 82% 0.0 mm 116.00 W/m2
10:15 15.1 °C 12.1 °C 1004.3 hPa SW 14.8 km/h 8.0 km/h 82% 0.0 mm 113.00 W/m2
10:20 15.1 °C 12.1 °C 1004.4 hPa SSW 8.0 km/h 16.1 km/h 82% 0.0 mm 135.00 W/m2
10:25 15.2 °C 12.1 °C 1004.4 hPa South 13.0 km/h 8.4 km/h 82% 0.0 mm 88.00 W/m2
10:30 15.2 °C 12.1 °C 1004.5 hPa South 9.7 km/h 16.1 km/h 82% 0.0 mm 77.00 W/m2
10:35 15.2 °C 12.2 °C 1004.6 hPa South 11.1 km/h 8.4 km/h 82% 0.0 mm 83.00 W/m2
10:40 15.2 °C 12.2 °C 1004.7 hPa South 8.0 km/h 14.5 km/h 82% 0.0 mm 100.00 W/m2
10:45 15.2 °C 12.1 °C 1004.9 hPa SSE 16.7 km/h 9.5 km/h 82% 0.0 mm 107.00 W/m2
10:50 15.2 °C 12.2 °C 1004.9 hPa South 11.3 km/h 16.1 km/h 82% 0.0 mm 141.00 W/m2
10:55 15.2 °C 12.2 °C 1004.5 hPa SSE 16.7 km/h 9.7 km/h 82% 0.0 mm 148.00 W/m2
11:00 15.3 °C 12.2 °C 1004.6 hPa SSE 11.3 km/h 19.3 km/h 82% 0.0 mm 163.00 W/m2
11:05 15.3 °C 12.3 °C 1004.5 hPa South 11.3 km/h 9.2 km/h 82% 0.0 mm 197.00 W/m2
11:10 15.4 °C 12.4 °C 1004.5 hPa South 9.7 km/h 19.3 km/h 82% 0.0 mm 174.00 W/m2
11:15 15.4 °C 12.4 °C 1004.4 hPa SSE 16.1 km/h 9.3 km/h 82% 0.0 mm 139.00 W/m2
11:20 15.4 °C 12.4 °C 1004.4 hPa South 9.7 km/h 16.1 km/h 82% 0.0 mm 127.00 W/m2
11:25 15.5 °C 12.4 °C 1004.3 hPa SSE 13.0 km/h 10.1 km/h 82% 0.0 mm 134.00 W/m2
11:30 15.6 °C 12.5 °C 1004.3 hPa SSE 8.0 km/h 14.5 km/h 82% 0.0 mm 174.00 W/m2
11:35 15.6 °C 12.5 °C 1004.2 hPa South 14.8 km/h 9.7 km/h 82% 0.0 mm 158.00 W/m2
11:40 15.5 °C 12.4 °C 1004.1 hPa South 8.0 km/h 14.5 km/h 82% 0.0 mm 156.00 W/m2
11:45 15.6 °C 12.5 °C 1004.2 hPa South 13.0 km/h 7.1 km/h 82% 0.0 mm 165.00 W/m2
11:50 15.7 °C 12.6 °C 1004.4 hPa South 8.0 km/h 14.5 km/h 82% 0.0 mm 169.00 W/m2
11:55 15.7 °C 12.6 °C 1004.4 hPa South 14.8 km/h 8.8 km/h 82% 0.0 mm 227.00 W/m2
12:00 15.7 °C 12.7 °C 1004.3 hPa South 9.7 km/h 14.5 km/h 82% 0.0 mm 172.00 W/m2
12:05 15.7 °C 12.7 °C 1004.5 hPa South 20.4 km/h 11.1 km/h 82% 0.0 mm 178.00 W/m2
12:10 15.7 °C 12.4 °C 1004.6 hPa SSW 12.9 km/h 25.7 km/h 81% 0.0 mm 109.00 W/m2
12:15 15.8 °C 12.5 °C 1004.7 hPa SW 13.0 km/h 8.2 km/h 81% 0.0 mm 102.00 W/m2
12:20 15.8 °C 12.5 °C 1004.6 hPa SSW 8.0 km/h 19.3 km/h 81% 0.0 mm 104.00 W/m2
12:25 15.8 °C 12.5 °C 1004.7 hPa SW 16.7 km/h 9.0 km/h 81% 0.0 mm 90.00 W/m2
12:30 15.8 °C 12.5 °C 1004.7 hPa SSW 3.2 km/h 16.1 km/h 81% 0.0 mm 88.00 W/m2
12:35 15.8 °C 12.5 °C 1004.8 hPa South 16.7 km/h 9.7 km/h 81% 0.0 mm 109.00 W/m2
12:40 15.8 °C 12.6 °C 1004.9 hPa South 11.1 km/h 5.1 km/h 81% 0.0 mm 142.00 W/m2
12:45 15.8 °C 12.6 °C 1004.7 hPa SSW 6.4 km/h 2.9 km/h 81% 0.0 mm 158.00 W/m2
12:50 15.9 °C 12.6 °C 1004.7 hPa SSW 9.7 km/h 19.3 km/h 81% 0.0 mm 183.00 W/m2
12:55 15.8 °C 12.6 °C 1004.8 hPa SSW 16.7 km/h 11.1 km/h 81% 0.0 mm 199.00 W/m2
13:00 15.8 °C 12.6 °C 1004.9 hPa SSW 9.7 km/h 19.3 km/h 81% 0.0 mm 158.00 W/m2
13:05 15.8 °C 12.6 °C 1004.8 hPa SW 18.5 km/h 13.0 km/h 81% 0.0 mm 144.00 W/m2
13:10 15.8 °C 12.6 °C 1004.8 hPa SSW 9.7 km/h 19.3 km/h 81% 0.0 mm 134.00 W/m2
13:15 15.8 °C 12.5 °C 1004.9 hPa SSW 11.3 km/h 5.1 km/h 81% 0.0 mm 148.00 W/m2
13:20 15.8 °C 12.6 °C 1004.9 hPa SSW 8.0 km/h 12.9 km/h 81% 0.0 mm 155.00 W/m2
13:25 15.9 °C 12.6 °C 1004.8 hPa SSW 8.0 km/h 4.3 km/h 81% 0.0 mm 134.00 W/m2
13:30 15.9 °C 12.7 °C 1004.7 hPa South 5.6 km/h 4.0 km/h 81% 0.0 mm 118.00 W/m2
13:35 15.9 °C 12.6 °C 1004.7 hPa South 16.7 km/h 11.6 km/h 81% 0.0 mm 181.00 W/m2
13:40 15.9 °C 12.7 °C 1004.7 hPa South 8.0 km/h 16.1 km/h 81% 0.0 mm 190.00 W/m2
13:45 16.1 °C 12.8 °C 1004.9 hPa SSE 11.3 km/h 5.0 km/h 81% 0.0 mm 137.00 W/m2
13:50 16.1 °C 12.7 °C 1004.7 hPa South 8.0 km/h 16.1 km/h 80% 0.0 mm 193.00 W/m2
13:55 16.2 °C 12.7 °C 1004.7 hPa South 13.0 km/h 10.0 km/h 80% 0.0 mm 213.00 W/m2
14:00 16.2 °C 12.7 °C 1004.6 hPa South 8.0 km/h 14.5 km/h 80% 0.0 mm 192.00 W/m2
14:05 16.2 °C 12.8 °C 1004.5 hPa South 16.7 km/h 10.3 km/h 80% 0.0 mm 218.00 W/m2
14:10 16.3 °C 12.8 °C 1004.5 hPa South 11.1 km/h 6.3 km/h 80% 0.0 mm 195.00 W/m2
14:15 16.3 °C 12.9 °C 1004.4 hPa SSW 18.5 km/h 9.2 km/h 80% 0.0 mm 223.00 W/m2
14:20 16.3 °C 12.7 °C 1004.4 hPa South 8.0 km/h 19.3 km/h 79% 0.0 mm 183.00 W/m2
14:25 16.3 °C 12.7 °C 1004.4 hPa SSW 14.8 km/h 8.2 km/h 79% 0.0 mm 204.00 W/m2
14:30 16.3 °C 12.6 °C 1004.4 hPa SSW 9.7 km/h 16.1 km/h 79% 0.0 mm 223.00 W/m2
14:35 16.2 °C 12.6 °C 1004.6 hPa SSW 16.7 km/h 12.9 km/h 79% 0.0 mm 186.00 W/m2
14:40 16.3 °C 12.6 °C 1004.4 hPa SSW 11.3 km/h 19.3 km/h 79% 0.0 mm 192.00 W/m2
14:45 16.3 °C 12.6 °C 1004.3 hPa SSW 14.8 km/h 7.9 km/h 79% 0.0 mm 192.00 W/m2
14:50 16.2 °C 12.6 °C 1004.3 hPa SSW 9.7 km/h 16.1 km/h 79% 0.0 mm 160.00 W/m2
14:55 16.2 °C 12.6 °C 1004.3 hPa South 13.0 km/h 6.8 km/h 79% 0.0 mm 162.00 W/m2
15:00 16.2 °C 12.6 °C 1004.4 hPa SSW 11.3 km/h 16.1 km/h 79% 0.0 mm 179.00 W/m2
15:05 16.2 °C 12.6 °C 1004.6 hPa SW 14.5 km/h 7.9 km/h 79% 0.0 mm 156.00 W/m2
15:10 16.2 °C 12.6 °C 1004.5 hPa SSW 8.0 km/h 19.3 km/h 79% 0.0 mm 118.00 W/m2
15:15 16.2 °C 12.5 °C 1004.6 hPa South 13.0 km/h 8.2 km/h 79% 0.0 mm 111.00 W/m2
15:20 16.2 °C 12.5 °C 1004.5 hPa SSW 8.0 km/h 17.7 km/h 79% 0.0 mm 132.00 W/m2
15:25 16.1 °C 12.4 °C 1004.5 hPa SW 18.5 km/h 10.6 km/h 79% 0.0 mm 134.00 W/m2
15:30 16.1 °C 12.4 °C 1004.6 hPa South 9.7 km/h 22.5 km/h 79% 0.0 mm 128.00 W/m2
15:35 16.1 °C 12.4 °C 1004.5 hPa SSW 16.7 km/h 7.2 km/h 79% 0.0 mm 121.00 W/m2
15:40 16.1 °C 12.4 °C 1004.5 hPa South 8.0 km/h 16.1 km/h 79% 0.0 mm 116.00 W/m2
15:45 16.1 °C 12.4 °C 1004.7 hPa South 13.0 km/h 7.7 km/h 79% 0.0 mm 121.00 W/m2
15:50 16.1 °C 12.4 °C 1004.6 hPa South 8.0 km/h 16.1 km/h 79% 0.0 mm 113.00 W/m2
15:55 16.1 °C 12.4 °C 1004.5 hPa South 13.0 km/h 6.8 km/h 79% 0.0 mm 105.00 W/m2
16:00 16.1 °C 12.4 °C 1004.6 hPa South 8.0 km/h 14.5 km/h 79% 0.0 mm 97.00 W/m2
16:05 16.1 °C 12.2 °C 1004.7 hPa SSE 13.0 km/h 9.5 km/h 78% 0.0 mm 97.00 W/m2
16:10 16.1 °C 12.2 °C 1004.8 hPa SSW 4.8 km/h 12.9 km/h 78% 0.0 mm 84.00 W/m2
16:15 15.9 °C 12.1 °C 1004.8 hPa SW 13.0 km/h 8.2 km/h 78% 0.0 mm 69.00 W/m2
16:20 15.9 °C 12.1 °C 1004.8 hPa SSW 9.7 km/h 19.3 km/h 78% 0.0 mm 67.00 W/m2
16:25 15.8 °C 12.2 °C 1004.7 hPa SW 16.7 km/h 9.2 km/h 79% 0.0 mm 62.00 W/m2
16:30 15.7 °C 12.1 °C 1004.8 hPa SSW 9.7 km/h 20.9 km/h 79% 0.0 mm 56.00 W/m2
16:35 15.6 °C 12.0 °C 1004.8 hPa SW 14.8 km/h 9.5 km/h 79% 0.0 mm 51.00 W/m2
16:40 15.6 °C 12.1 °C 1004.8 hPa SSW 9.7 km/h 17.7 km/h 80% 0.0 mm 47.00 W/m2
16:45 15.5 °C 12.1 °C 1004.7 hPa South 7.4 km/h 5.5 km/h 80% 0.0 mm 46.00 W/m2
16:50 15.4 °C 12.0 °C 1004.7 hPa SSW 4.8 km/h 11.3 km/h 80% 0.0 mm 46.00 W/m2
16:55 15.4 °C 11.9 °C 1004.7 hPa SSW 5.6 km/h 3.2 km/h 80% 0.0 mm 44.00 W/m2
17:00 15.3 °C 12.1 °C 1004.8 hPa SSW 4.8 km/h 9.7 km/h 81% 0.0 mm 44.00 W/m2
17:05 15.3 °C 12.1 °C 1004.7 hPa SSW 9.3 km/h 5.6 km/h 81% 0.2 mm 47.00 W/m2
17:10 15.3 °C 12.0 °C 1004.7 hPa SSW 3.2 km/h 9.7 km/h 81% 0.2 mm 47.00 W/m2
17:15 15.2 °C 12.0 °C 1004.7 hPa SSW 9.3 km/h 6.8 km/h 81% 0.2 mm 39.00 W/m2
17:20 15.2 °C 11.9 °C 1004.7 hPa SSW 5.6 km/h 1.9 km/h 81% 0.2 mm 32.00 W/m2
17:25 15.1 °C 11.9 °C 1004.7 hPa SSW 7.4 km/h 3.5 km/h 81% 0.2 mm 32.00 W/m2
17:30 15.1 °C 11.8 °C 1004.7 hPa SSW 3.2 km/h 8.0 km/h 81% 0.2 mm 35.00 W/m2
17:35 15.1 °C 12.0 °C 1004.8 hPa South 6.4 km/h 2.3 km/h 82% 0.4 mm 30.00 W/m2
17:40 15.0 °C 11.9 °C 1004.8 hPa South 4.8 km/h 9.7 km/h 82% 0.4 mm 33.00 W/m2
17:45 14.9 °C 11.8 °C 1004.7 hPa SSW 11.1 km/h 5.6 km/h 82% 0.4 mm 32.00 W/m2
17:50 14.8 °C 11.8 °C 1004.5 hPa South 3.2 km/h 11.3 km/h 82% 0.4 mm 37.00 W/m2
17:55 14.8 °C 11.7 °C 1004.5 hPa South 8.0 km/h 4.8 km/h 82% 0.4 mm 32.00 W/m2
18:00 14.8 °C 11.7 °C 1004.4 hPa South 4.8 km/h 9.7 km/h 82% 0.4 mm 28.00 W/m2
18:05 14.7 °C 11.7 °C 1004.4 hPa SSW 7.4 km/h 4.0 km/h 82% 0.2 mm 23.00 W/m2
18:10 14.7 °C 11.7 °C 1004.4 hPa SSW 3.2 km/h 8.0 km/h 82% 0.2 mm 18.00 W/m2
18:15 14.7 °C 11.6 °C 1004.5 hPa South 5.6 km/h 3.1 km/h 82% 0.2 mm 11.00 W/m2
18:20 14.6 °C 11.6 °C 1004.5 hPa South 3.2 km/h 9.7 km/h 82% 0.2 mm 9.00 W/m2
18:25 14.6 °C 11.5 °C 1004.5 hPa South 5.6 km/h 3.2 km/h 82% 0.2 mm 7.00 W/m2
18:30 14.5 °C 11.4 °C 1004.5 hPa South 3.2 km/h 9.7 km/h 82% 0.2 mm 5.00 W/m2
18:35 14.4 °C 11.4 °C 1004.4 hPa South 5.6 km/h 1.9 km/h 82% 0.0 mm 0.00 W/m2
18:40 14.4 °C 11.4 °C 1004.4 hPa South 3.2 km/h 6.4 km/h 82% 0.0 mm 0.00 W/m2
18:45 14.3 °C 11.3 °C 1004.5 hPa South 5.6 km/h 3.4 km/h 82% 0.0 mm 0.00 W/m2
18:50 14.3 °C 11.3 °C 1004.7 hPa South 3.2 km/h 6.4 km/h 82% 0.0 mm 0.00 W/m2
18:55 14.3 °C 11.2 °C 1005.0 hPa South 5.6 km/h 4.5 km/h 82% 0.0 mm 0.00 W/m2
19:00 14.2 °C 11.2 °C 1005.1 hPa South 4.8 km/h 9.7 km/h 82% 0.0 mm 0.00 W/m2
19:05 14.2 °C 11.1 °C 1005.2 hPa South 9.7 km/h 6.1 km/h 82% 0.0 mm 0.00 W/m2
19:10 14.2 °C 11.1 °C 1005.2 hPa South 3.2 km/h 11.3 km/h 82% 0.0 mm 0.00 W/m2
19:15 14.2 °C 11.1 °C 1005.2 hPa South 5.6 km/h 4.0 km/h 82% 0.0 mm 0.00 W/m2
19:20 14.2 °C 11.1 °C 1005.1 hPa South 4.8 km/h 9.7 km/h 82% 0.0 mm 0.00 W/m2
19:25 14.2 °C 11.1 °C 1005.1 hPa South 8.0 km/h 5.3 km/h 82% 0.0 mm 0.00 W/m2
19:30 14.1 °C 11.1 °C 1005.3 hPa South 4.8 km/h 9.7 km/h 82% 0.0 mm 0.00 W/m2
19:35 14.1 °C 11.3 °C 1005.4 hPa South 8.0 km/h 6.0 km/h 83% 0.0 mm 0.00 W/m2
19:40 14.1 °C 11.3 °C 1005.4 hPa South 8.0 km/h 11.3 km/h 83% 0.0 mm 0.00 W/m2
19:45 14.1 °C 11.3 °C 1005.3 hPa South 9.3 km/h 5.5 km/h 83% 0.0 mm 0.00 W/m2
19:50 14.1 °C 11.3 °C 1005.4 hPa South 4.8 km/h 9.7 km/h 83% 0.0 mm 0.00 W/m2
19:55 14.1 °C 11.3 °C 1005.4 hPa South 11.1 km/h 7.2 km/h 83% 0.0 mm 0.00 W/m2
20:00 14.1 °C 11.3 °C 1005.5 hPa South 8.0 km/h 11.3 km/h 83% 0.0 mm 0.00 W/m2
20:05 14.2 °C 11.3 °C 1005.6 hPa South 9.7 km/h 6.9 km/h 83% 0.0 mm 0.00 W/m2
20:10 14.2 °C 11.3 °C 1005.6 hPa SW 8.0 km/h 6.4 km/h 83% 0.6 mm 0.00 W/m2
20:15 14.2 °C 11.3 °C 1005.7 hPa SSW 13.0 km/h 8.4 km/h 83% 1.4 mm 0.00 W/m2
20:20 14.1 °C 11.3 °C 1005.7 hPa SSW 4.8 km/h 14.5 km/h 83% 1.4 mm 0.00 W/m2
20:25 14.1 °C 11.2 °C 1005.7 hPa SW 9.7 km/h 5.5 km/h 83% 1.4 mm 0.00 W/m2
20:30 14.1 °C 11.2 °C 1005.6 hPa SW 3.2 km/h 11.3 km/h 83% 1.6 mm 0.00 W/m2
20:35 13.9 °C 10.9 °C 1005.6 hPa SW 5.6 km/h 4.3 km/h 82% 1.8 mm 0.00 W/m2
20:40 13.9 °C 10.9 °C 1005.6 hPa SSW 7.4 km/h 5.1 km/h 82% 1.8 mm 0.00 W/m2
20:45 13.8 °C 10.8 °C 1005.6 hPa SW 6.4 km/h 4.7 km/h 82% 1.8 mm 0.00 W/m2
20:50 13.8 °C 10.7 °C 1005.7 hPa SW 4.8 km/h 9.7 km/h 82% 1.8 mm 0.00 W/m2
20:55 13.7 °C 10.8 °C 1005.8 hPa SW 7.4 km/h 4.8 km/h 83% 1.8 mm 0.00 W/m2
21:00 13.6 °C 10.8 °C 1005.9 hPa SSW 8.0 km/h 12.9 km/h 83% 1.8 mm 0.00 W/m2
21:05 13.6 °C 10.8 °C 1005.9 hPa SW 11.1 km/h 6.3 km/h 83% 1.8 mm 0.00 W/m2
21:10 13.6 °C 10.7 °C 1005.9 hPa SW 8.0 km/h 14.5 km/h 83% 1.2 mm 0.00 W/m2
21:15 13.5 °C 10.7 °C 1005.9 hPa SW 9.3 km/h 6.3 km/h 83% 0.4 mm 0.00 W/m2
21:20 13.5 °C 10.5 °C 1005.9 hPa SW 3.2 km/h 9.7 km/h 82% 0.4 mm 0.00 W/m2
21:25 13.5 °C 10.5 °C 1005.9 hPa SW 5.6 km/h 4.8 km/h 82% 0.4 mm 0.00 W/m2
21:30 13.4 °C 10.4 °C 1005.9 hPa SW 4.8 km/h 8.0 km/h 82% 0.2 mm 0.00 W/m2
21:35 13.4 °C 10.4 °C 1005.9 hPa SSW 9.7 km/h 6.3 km/h 82% 0.0 mm 0.00 W/m2
21:40 13.4 °C 10.4 °C 1006.1 hPa SSW 4.8 km/h 9.7 km/h 82% 0.0 mm 0.00 W/m2
Juneau County Weather
Compliments of Weather Underground - 2.75 mb